Galen, Montana
Current Conditions -  °F | °C
As of 1:53 PM on Friday 24 Oct 2014 (Local Time) from KBTM Reporting Station
Light Rain Light Rain  
Wind Chill: 46°   Ceiling: 4500
Heat Index: 46°   Visibility: 10mi
Dew Point: 37°   Wind: 0mph
Humidity: 71%   Direction: NA
Pressure: 30.14"   Gusts: NA
Location:  46.357°N, 112.771°W
Report Text: KBTM 241953Z AUTO 00000KT 10SM -RA SCT033 BKN045 OVC055 08/03 A3014 RMK AO2 SLP194 P0001 T00780028
Loading
Personal Weather Stations






























Interactive Weather Map
Tropical Storm Tracking
New forecast layout! Learn more

10-Day Weather Forecast

Advertisements
Track Severe Weather on mobile